createdAt,value
2019-03-24T00:00:17.664Z,27.73
2019-03-24T00:02:49.128Z,28.02
2019-03-24T00:05:20.066Z,28.38
2019-03-24T00:07:51.220Z,27.90
2019-03-24T00:10:22.243Z,27.10
2019-03-24T00:13:08.847Z,29.30
2019-03-24T00:15:42.395Z,28.77
2019-03-24T00:18:13.528Z,27.95
2019-03-24T00:20:44.504Z,26.37
2019-03-24T00:23:15.373Z,29.60
2019-03-24T00:25:47.231Z,27.73
2019-03-24T00:28:18.752Z,27.90
2019-03-24T00:31:24.792Z,27.77
2019-03-24T00:33:55.851Z,30.45
2019-03-24T00:36:27.045Z,29.10
2019-03-24T00:38:58.294Z,28.77
2019-03-24T00:41:31.134Z,29.50
2019-03-24T00:44:01.932Z,29.72
2019-03-24T00:46:32.835Z,30.43
2019-03-24T00:49:03.787Z,32.13
2019-03-24T00:51:34.616Z,29.52
2019-03-24T00:54:05.970Z,30.12
2019-03-24T00:56:36.807Z,30.55
2019-03-24T00:59:33.553Z,28.07
2019-03-24T01:13:14.265Z,30.15
2019-03-24T01:15:48.019Z,30.43
2019-03-24T01:18:19.933Z,30.12
2019-03-24T01:20:51.262Z,30.72
2019-03-24T01:23:23.036Z,32.03
2019-03-24T01:25:54.896Z,31.30
2019-03-24T01:28:26.239Z,30.82
2019-03-24T01:30:58.963Z,30.72
2019-03-24T01:33:29.975Z,29.37
2019-03-24T01:36:21.971Z,28.55
2019-03-24T01:38:53.525Z,29.10
2019-03-24T01:41:26.632Z,31.95
2019-03-24T01:44:12.810Z,30.80
2019-03-24T01:47:00.616Z,32.60
2019-03-24T01:49:31.885Z,32.67
2019-03-24T01:52:24.426Z,33.38
2019-03-24T01:55:11.309Z,33.70
2019-03-24T01:57:45.076Z,33.65
2019-03-24T02:00:27.824Z,32.80
2019-03-24T02:03:05.612Z,32.20
2019-03-24T02:05:36.842Z,31.12
2019-03-24T02:08:08.551Z,31.70
2019-03-24T02:10:41.709Z,34.20
2019-03-24T02:13:13.868Z,33.90
2019-03-24T02:15:45.769Z,35.00
2019-03-24T02:26:36.920Z,35.05
2019-03-24T02:29:10.875Z,33.60
2019-03-24T02:31:42.060Z,34.98
2019-03-24T02:34:13.096Z,35.52
2019-03-24T02:36:44.711Z,34.58
2019-03-24T02:39:15.737Z,35.05
2019-03-24T02:41:46.572Z,32.80
2019-03-24T02:44:20.099Z,34.30
2019-03-24T02:46:53.135Z,34.73
2019-03-24T02:49:26.945Z,34.48
2019-03-24T02:51:58.053Z,38.78
2019-03-24T02:54:28.944Z,35.60
2019-03-24T02:57:00.287Z,33.05
2019-03-24T02:59:31.064Z,39.65
2019-03-24T03:02:02.223Z,36.33
2019-03-24T03:04:33.776Z,36.25
2019-03-24T03:07:05.400Z,39.42
2019-03-24T03:09:36.785Z,35.60
2019-03-24T03:12:07.976Z,37.05
2019-03-24T03:14:39.038Z,36.90
2019-03-24T03:17:10.418Z,36.13
2019-03-24T03:19:42.510Z,37.88
2019-03-24T03:22:14.410Z,36.23
2019-03-24T03:24:45.694Z,36.68
2019-03-24T03:27:19.343Z,38.10
2019-03-24T03:29:50.750Z,37.45
2019-03-24T03:32:22.307Z,38.33
2019-03-24T03:34:53.711Z,35.52
2019-03-24T03:37:25.451Z,36.25
2019-03-24T03:39:58.907Z,36.77
2019-03-24T03:42:30.751Z,36.90
2019-03-24T03:45:02.977Z,35.98
2019-03-24T03:47:34.362Z,36.03
2019-03-24T03:50:08.790Z,38.13
2019-03-24T03:52:39.963Z,37.80
2019-03-24T03:55:11.403Z,38.08
2019-03-24T03:57:42.707Z,40.95
2019-03-24T04:00:14.325Z,35.55
2019-03-24T04:02:45.960Z,37.20
2019-03-24T04:05:17.148Z,38.53
2019-03-24T04:08:10.347Z,37.13
2019-03-24T04:10:43.231Z,40.23
2019-03-24T04:13:18.115Z,34.20
2019-03-24T04:15:56.270Z,33.70
2019-03-24T04:18:32.693Z,37.88
2019-03-24T04:21:14.359Z,36.25
2019-03-24T04:23:46.881Z,37.85
2019-03-24T04:26:18.066Z,38.53
2019-03-24T04:28:51.903Z,36.20
2019-03-24T04:31:26.081Z,37.50
2019-03-24T04:33:57.413Z,39.00
2019-03-24T04:36:31.377Z,36.88
2019-03-24T04:39:09.026Z,37.65
2019-03-24T04:41:48.555Z,37.85
2019-03-24T04:44:24.198Z,36.77
2019-03-24T04:46:58.278Z,37.85
2019-03-24T04:49:31.631Z,37.15
2019-03-24T04:52:06.065Z,40.38
2019-03-24T04:54:37.981Z,40.60
2019-03-24T04:57:09.211Z,36.75
2019-03-24T04:59:49.155Z,40.43
2019-03-24T05:02:39.143Z,37.90
2019-03-24T05:05:32.010Z,37.55
2019-03-24T05:08:08.492Z,40.25
2019-03-24T05:10:45.924Z,38.15
2019-03-24T05:13:17.078Z,38.42
2019-03-24T05:15:54.025Z,37.48
2019-03-24T05:18:25.239Z,39.55
2019-03-24T05:20:56.550Z,38.78
2019-03-24T05:23:27.933Z,37.63
2019-03-24T05:25:59.074Z,39.48
2019-03-24T05:28:33.388Z,38.28
2019-03-24T05:31:08.090Z,39.10
2019-03-24T05:33:39.057Z,40.58
2019-03-24T05:36:11.430Z,37.78
2019-03-24T05:38:44.133Z,38.80
2019-03-24T05:41:15.139Z,42.40
2019-03-24T05:43:46.103Z,41.23
2019-03-24T05:46:26.711Z,39.03
2019-03-24T05:49:03.558Z,35.78
2019-03-24T05:51:34.398Z,40.92
2019-03-24T05:54:05.248Z,41.15
2019-03-24T05:56:46.159Z,38.98
2019-03-24T05:59:17.161Z,40.35
2019-03-24T06:01:54.082Z,38.98
2019-03-24T06:04:24.932Z,40.40
2019-03-24T06:06:58.646Z,40.23
2019-03-24T06:09:32.182Z,39.45
2019-03-24T06:12:03.031Z,41.05
2019-03-24T06:14:33.772Z,39.67
2019-03-24T06:17:04.429Z,39.30
2019-03-24T06:19:38.058Z,38.73
2019-03-24T06:22:20.644Z,41.77
2019-03-24T06:24:51.680Z,37.08
2019-03-24T06:27:24.653Z,38.78
2019-03-24T06:29:55.530Z,38.55
2019-03-24T06:32:26.242Z,38.73
2019-03-24T06:34:57.019Z,41.45
2019-03-24T06:37:27.742Z,40.43
2019-03-24T06:39:58.789Z,37.00
2019-03-24T06:42:29.504Z,40.00
2019-03-24T06:45:00.448Z,39.20
2019-03-24T06:47:31.374Z,39.25
2019-03-24T06:50:02.060Z,38.40
2019-03-24T06:52:41.274Z,41.68
2019-03-24T06:55:12.075Z,39.65
2019-03-24T06:57:43.247Z,38.17
2019-03-24T07:00:23.455Z,38.25
2019-03-24T07:03:16.556Z,40.15
2019-03-24T07:05:50.399Z,39.00
2019-03-24T07:08:21.165Z,41.45
2019-03-24T07:10:51.940Z,41.80
2019-03-24T07:13:30.180Z,44.27
2019-03-24T07:16:05.667Z,42.83
2019-03-24T07:18:39.126Z,43.00
2019-03-24T07:21:10.176Z,40.95
2019-03-24T07:23:44.069Z,39.30
2019-03-24T07:26:15.054Z,41.18
2019-03-24T07:28:49.027Z,41.65
2019-03-24T07:31:28.474Z,38.33
2019-03-24T07:34:21.196Z,43.35
2019-03-24T07:37:00.340Z,40.33
2019-03-24T07:39:31.028Z,37.50
2019-03-24T07:42:01.908Z,38.53
2019-03-24T07:44:41.412Z,41.20
2019-03-24T07:47:25.762Z,38.23
2019-03-24T07:49:59.304Z,37.90
2019-03-24T07:52:31.912Z,39.05
2019-03-24T07:55:07.756Z,39.35
2019-03-24T07:57:41.524Z,38.53
2019-03-24T08:00:17.144Z,37.45
2019-03-24T08:03:04.277Z,38.78
2019-03-24T08:06:50.849Z,40.05
2019-03-24T08:09:30.967Z,39.10
2019-03-24T08:12:13.229Z,40.73
2019-03-24T08:17:25.481Z,37.83
2019-03-24T08:19:56.572Z,40.30
2019-03-24T08:26:38.275Z,39.67
2019-03-24T08:29:16.734Z,40.35
2019-03-24T08:31:47.841Z,41.70
2019-03-24T08:34:18.755Z,38.40
2019-03-24T08:36:49.761Z,39.40
2019-03-24T08:39:21.575Z,39.15
2019-03-24T08:41:52.400Z,36.03
2019-03-24T08:44:23.216Z,42.20
2019-03-24T08:46:54.025Z,40.60
2019-03-24T08:49:25.129Z,39.98
2019-03-24T08:51:56.132Z,42.05
2019-03-24T08:54:27.074Z,41.60
2019-03-24T08:56:57.734Z,44.03
2019-03-24T08:59:28.484Z,44.60
2019-03-24T09:01:59.280Z,40.73
2019-03-24T09:04:30.407Z,37.15
2019-03-24T09:07:01.986Z,42.35
2019-03-24T09:09:33.297Z,43.87
2019-03-24T09:12:04.267Z,42.90
2019-03-24T09:15:37.775Z,38.65
2019-03-24T09:19:39.039Z,31.50
2019-03-24T09:21:39.484Z,42.25
2019-03-24T09:24:10.260Z,43.15
2019-03-24T09:29:36.120Z,41.65
2019-03-24T09:59:09.637Z,42.10
2019-03-24T10:01:42.489Z,34.33
2019-03-24T10:04:28.291Z,42.40
2019-03-24T10:06:59.767Z,41.20
2019-03-24T10:09:36.389Z,38.13
2019-03-24T10:12:09.108Z,40.17
2019-03-24T10:14:39.791Z,42.90
2019-03-24T10:17:18.875Z,43.25
2019-03-24T10:20:20.229Z,41.15
2019-03-24T10:22:59.214Z,39.53
2019-03-24T10:25:38.748Z,35.17
2019-03-24T10:28:09.663Z,38.28
2019-03-24T10:30:46.277Z,41.95
2019-03-24T10:33:19.974Z,40.45
2019-03-24T10:37:21.918Z,43.63
2019-03-24T10:39:55.663Z,25.82
2019-03-24T10:42:26.577Z,44.42
2019-03-24T10:44:57.647Z,42.60
2019-03-24T10:47:28.525Z,44.30
2019-03-24T10:49:59.368Z,34.55
2019-03-24T10:52:30.747Z,43.35
2019-03-24T10:55:06.211Z,43.60
2019-03-24T10:57:37.921Z,40.08
2019-03-24T11:00:12.769Z,45.52
2019-03-24T11:02:58.539Z,42.93
2019-03-24T11:05:48.094Z,46.37
2019-03-24T11:08:42.174Z,35.05
2019-03-24T11:11:13.802Z,43.05
2019-03-24T11:13:53.072Z,41.40
2019-03-24T11:16:33.134Z,44.08
2019-03-24T11:19:04.865Z,42.60
2019-03-24T11:21:35.549Z,44.60
2019-03-24T11:24:06.842Z,43.13
2019-03-24T11:26:38.086Z,40.88
2019-03-24T11:29:08.792Z,48.00
2019-03-24T11:31:39.667Z,41.42
2019-03-24T11:34:29.038Z,49.73
2019-03-24T11:37:00.895Z,33.78
2019-03-24T11:39:31.772Z,42.98
2019-03-24T11:42:02.535Z,39.53
2019-03-24T11:44:34.830Z,40.98
2019-03-24T11:47:05.896Z,42.40
2019-03-24T11:49:45.775Z,35.95
2019-03-24T11:52:09.419Z,42.13
2019-03-24T11:54:40.222Z,43.90
2019-03-24T11:57:11.078Z,40.05
2019-03-24T11:59:41.737Z,41.25
2019-03-24T12:02:12.514Z,45.23
2019-03-24T12:04:43.251Z,40.78
2019-03-24T12:07:14.142Z,40.35
2019-03-24T12:09:44.847Z,39.65
2019-03-24T12:12:19.563Z,40.40
2019-03-24T12:14:50.568Z,38.80
2019-03-24T12:17:21.384Z,41.53
2019-03-24T12:19:56.727Z,37.30
2019-03-24T12:22:25.121Z,37.85
2019-03-24T12:24:55.838Z,37.80
2019-03-24T12:27:26.632Z,38.98
2019-03-24T12:29:57.351Z,41.85
2019-03-24T12:32:28.170Z,38.45
2019-03-24T12:34:58.881Z,38.58
2019-03-24T12:37:29.673Z,41.13
2019-03-24T12:40:00.579Z,39.63
2019-03-24T12:42:31.257Z,41.37
2019-03-24T12:45:02.000Z,36.73
2019-03-24T12:47:32.862Z,36.60
2019-03-24T12:50:08.981Z,41.28
2019-03-24T12:52:36.788Z,38.73
2019-03-24T12:55:07.947Z,37.28
2019-03-24T12:57:38.779Z,37.00
2019-03-24T13:00:10.249Z,33.42
2019-03-24T13:02:41.063Z,38.90
2019-03-24T13:05:12.166Z,40.17
2019-03-24T13:07:42.992Z,35.13
2019-03-24T13:10:13.881Z,35.60
2019-03-24T13:12:44.725Z,38.98
2019-03-24T13:15:15.425Z,37.00
2019-03-24T13:17:46.138Z,38.15
2019-03-24T13:20:26.743Z,36.55
2019-03-24T13:22:49.629Z,41.08
2019-03-24T13:25:20.549Z,35.90
2019-03-24T13:27:51.243Z,39.58
2019-03-24T13:30:22.006Z,36.28
2019-03-24T13:32:53.144Z,35.63
2019-03-24T13:35:24.011Z,34.30
2019-03-24T13:37:54.918Z,40.38
2019-03-24T13:40:25.723Z,43.70
2019-03-24T13:42:56.606Z,39.08
2019-03-24T13:45:27.701Z,36.05
2019-03-24T13:47:58.413Z,32.90
2019-03-24T13:50:31.569Z,35.83
2019-03-24T13:53:01.777Z,35.00
2019-03-24T13:55:32.474Z,34.55
2019-03-24T13:58:03.460Z,41.10
2019-03-24T14:00:34.154Z,36.50
2019-03-24T14:03:04.909Z,30.95
2019-03-24T14:05:35.840Z,33.05
2019-03-24T14:08:06.616Z,34.33
2019-03-24T14:10:37.385Z,36.53
2019-03-24T14:13:08.044Z,34.08
2019-03-24T14:15:38.866Z,34.45
2019-03-24T14:18:09.735Z,38.35
2019-03-24T14:20:43.725Z,40.23
2019-03-24T14:23:13.055Z,39.03
2019-03-24T14:25:43.959Z,33.80
2019-03-24T14:28:14.796Z,33.10
2019-03-24T14:30:47.592Z,36.83
2019-03-24T14:33:18.877Z,38.95
2019-03-24T14:35:49.641Z,39.85
2019-03-24T14:38:20.602Z,34.85
2019-03-24T14:40:51.607Z,33.18
2019-03-24T14:43:22.963Z,30.97
2019-03-24T14:45:56.133Z,35.95
2019-03-24T14:48:27.000Z,39.30
2019-03-24T14:50:57.890Z,40.67
2019-03-24T14:53:28.634Z,38.42
2019-03-24T14:55:59.426Z,35.63
2019-03-24T14:58:30.139Z,41.33
2019-03-24T15:01:01.111Z,36.90
2019-03-24T15:03:31.696Z,37.40
2019-03-24T15:06:02.402Z,41.10
2019-03-24T15:08:33.176Z,39.30
2019-03-24T15:11:04.314Z,34.92
2019-03-24T15:13:35.251Z,34.65
2019-03-24T15:16:06.156Z,38.40
2019-03-24T15:18:37.053Z,33.35
2019-03-24T15:21:07.832Z,35.78
2019-03-24T15:23:39.592Z,39.05
2019-03-24T15:26:10.436Z,35.05
2019-03-24T15:28:41.407Z,35.88
2019-03-24T15:31:12.335Z,39.95
2019-03-24T15:33:43.247Z,37.28
2019-03-24T15:36:14.110Z,39.00
2019-03-24T15:38:49.037Z,37.95
2019-03-24T15:41:20.558Z,34.03
2019-03-24T15:43:51.392Z,35.65
2019-03-24T15:46:22.326Z,38.53
2019-03-24T15:48:53.150Z,35.30
2019-03-24T15:51:23.927Z,34.70
2019-03-24T15:53:54.975Z,45.40
2019-03-24T15:56:25.762Z,37.33
2019-03-24T15:58:56.538Z,36.20
2019-03-24T16:01:27.479Z,27.52
2019-03-24T16:03:58.479Z,39.58
2019-03-24T16:06:29.295Z,33.92
2019-03-24T16:09:00.189Z,42.38
2019-03-24T16:11:30.994Z,31.85
2019-03-24T16:14:01.773Z,39.40
2019-03-24T16:16:32.538Z,30.10
2019-03-24T16:19:03.368Z,36.75
2019-03-24T16:21:34.179Z,34.60
2019-03-24T16:24:05.010Z,35.90
2019-03-24T16:26:35.863Z,38.63
2019-03-24T16:29:06.649Z,34.35
2019-03-24T16:31:37.407Z,35.43
2019-03-24T16:34:08.209Z,33.28
2019-03-24T16:36:39.232Z,35.58
2019-03-24T16:39:10.014Z,39.40
2019-03-24T16:41:44.521Z,29.30
2019-03-24T16:44:15.451Z,33.65
2019-03-24T16:46:46.622Z,34.43
2019-03-24T16:49:17.396Z,32.15
2019-03-24T16:51:48.320Z,33.92
2019-03-24T16:54:19.425Z,31.90
2019-03-24T16:56:50.155Z,30.65
2019-03-24T16:59:21.080Z,31.30
2019-03-24T17:01:51.869Z,35.35
2019-03-24T17:04:22.637Z,33.25
2019-03-24T17:06:53.718Z,31.93
2019-03-24T17:09:24.546Z,31.40
2019-03-24T17:11:57.063Z,31.77
2019-03-24T17:14:28.367Z,34.27
2019-03-24T17:16:59.591Z,35.30
2019-03-24T17:19:30.488Z,35.40
2019-03-24T17:22:01.489Z,32.38
2019-03-24T17:24:32.172Z,33.70
2019-03-24T17:27:02.972Z,34.35
2019-03-24T17:29:33.978Z,32.63
2019-03-24T17:32:04.859Z,32.35
2019-03-24T17:34:35.720Z,30.75
2019-03-24T17:37:06.628Z,33.70
2019-03-24T17:39:37.498Z,32.33
2019-03-24T17:42:09.152Z,37.45
2019-03-24T17:44:39.842Z,32.70
2019-03-24T17:47:10.608Z,31.68
2019-03-24T17:49:41.273Z,33.60
2019-03-24T17:52:12.007Z,34.60
2019-03-24T17:54:43.317Z,34.23
2019-03-24T17:57:14.422Z,33.10
2019-03-24T17:59:45.326Z,31.75
2019-03-24T18:02:16.571Z,31.75
2019-03-24T18:04:47.983Z,33.80
2019-03-24T18:07:18.962Z,33.50
2019-03-24T18:09:50.002Z,33.80
2019-03-24T18:12:20.775Z,32.13
2019-03-24T18:14:51.807Z,32.17
2019-03-24T18:17:22.911Z,32.58
2019-03-24T18:19:56.732Z,31.68
2019-03-24T18:22:27.775Z,30.57
2019-03-24T18:24:59.811Z,32.63
2019-03-24T18:27:30.692Z,30.68
2019-03-24T18:30:01.750Z,31.62
2019-03-24T18:35:41.210Z,31.97
2019-03-24T18:38:12.191Z,31.20
2019-03-24T18:40:43.086Z,34.83
2019-03-24T18:43:14.032Z,32.45
2019-03-24T18:45:45.877Z,32.65
2019-03-24T18:48:16.977Z,31.42
2019-03-24T18:50:48.258Z,31.77
2019-03-24T18:53:19.194Z,35.20
2019-03-24T18:55:54.282Z,29.87
2019-03-24T18:58:25.744Z,34.38
2019-03-24T19:01:04.327Z,35.08
2019-03-24T19:03:36.172Z,32.08
2019-03-24T19:06:06.967Z,37.25
2019-03-24T19:08:41.938Z,33.83
2019-03-24T19:11:18.105Z,30.40
2019-03-24T19:13:49.069Z,32.98
2019-03-24T19:16:19.876Z,29.52
2019-03-24T19:18:51.572Z,31.20
2019-03-24T19:21:22.542Z,30.55
2019-03-24T19:23:55.861Z,29.10
2019-03-24T19:26:26.890Z,29.75
2019-03-24T19:28:58.996Z,31.55
2019-03-24T19:31:30.963Z,31.87
2019-03-24T19:34:02.572Z,28.40
2019-03-24T19:36:34.947Z,30.68
2019-03-24T19:39:08.875Z,32.25
2019-03-24T19:41:42.723Z,32.08
2019-03-24T19:44:13.723Z,29.25
2019-03-24T19:46:45.563Z,31.00
2019-03-24T19:49:17.706Z,31.50
2019-03-24T19:51:48.983Z,29.57
2019-03-24T19:54:19.761Z,30.27
2019-03-24T19:56:51.126Z,30.40
2019-03-24T19:59:22.110Z,27.13
2019-03-24T20:01:53.311Z,29.67
2019-03-24T20:04:25.760Z,28.77
2019-03-24T20:06:57.545Z,31.85
2019-03-24T20:09:28.693Z,31.23
2019-03-24T20:12:00.279Z,28.02
2019-03-24T20:14:48.769Z,30.55
2019-03-24T20:17:22.495Z,30.70
2019-03-24T20:19:59.984Z,28.70
2019-03-24T20:22:31.374Z,28.32
2019-03-24T20:25:02.772Z,27.70
2019-03-24T20:27:33.958Z,26.87
2019-03-24T20:30:18.135Z,27.37
2019-03-24T20:32:51.980Z,27.67
2019-03-24T20:35:23.525Z,25.62
2019-03-24T20:37:54.318Z,26.45
2019-03-24T20:40:25.076Z,26.00
2019-03-24T20:42:58.122Z,25.05
2019-03-24T20:45:32.010Z,26.60
2019-03-24T20:48:03.546Z,26.60
2019-03-24T20:50:34.481Z,28.35
2019-03-24T20:53:17.642Z,25.32
2019-03-24T20:55:39.771Z,26.93
2019-03-24T20:58:10.700Z,26.73
2019-03-24T21:00:41.710Z,24.37
2019-03-24T21:03:12.708Z,26.33
2019-03-24T21:05:43.679Z,25.88
2019-03-24T21:08:14.705Z,25.00
2019-03-24T21:10:45.608Z,25.43
2019-03-24T21:13:16.414Z,26.45
2019-03-24T21:15:47.256Z,24.92
2019-03-24T21:18:17.958Z,25.40
2019-03-24T21:20:49.546Z,25.72
2019-03-24T21:23:29.045Z,24.47
2019-03-24T21:25:54.194Z,26.60
2019-03-24T21:28:25.037Z,25.60
2019-03-24T21:30:56.001Z,26.97
2019-03-24T21:33:27.025Z,22.90
2019-03-24T21:35:58.056Z,25.25
2019-03-24T21:38:29.134Z,28.25
2019-03-24T21:41:00.147Z,26.45
2019-03-24T21:43:31.054Z,24.85
2019-03-24T21:46:01.893Z,24.43
2019-03-24T21:48:33.049Z,24.90
2019-03-24T21:51:04.878Z,26.12
2019-03-24T21:53:40.656Z,22.20
2019-03-24T21:56:08.391Z,25.45
2019-03-24T21:58:39.233Z,22.93
2019-03-24T22:01:09.949Z,24.50
2019-03-24T22:03:40.940Z,22.77
2019-03-24T22:06:11.911Z,23.05
2019-03-24T22:08:42.701Z,22.82
2019-03-24T22:11:13.613Z,22.42
2019-03-24T22:13:44.484Z,22.62
2019-03-24T22:16:15.307Z,20.52
2019-03-24T22:18:45.974Z,18.75
2019-03-24T22:21:16.937Z,20.15
2019-03-24T22:23:52.097Z,19.07
2019-03-24T22:26:24.192Z,18.15
2019-03-24T22:28:56.909Z,21.40
2019-03-24T22:31:28.882Z,17.87
2019-03-24T22:34:00.523Z,17.62
2019-03-24T22:36:36.048Z,20.12
2019-03-24T22:39:07.698Z,14.85
2019-03-24T22:41:38.460Z,15.63
2019-03-24T22:44:09.866Z,16.05
2019-03-24T22:46:40.823Z,17.25
2019-03-24T22:49:11.572Z,15.45
2019-03-24T22:51:43.286Z,15.90
2019-03-24T22:54:14.020Z,17.30
2019-03-24T22:56:44.700Z,18.55
2019-03-24T22:59:16.380Z,20.55
2019-03-24T23:01:48.879Z,22.37
2019-03-24T23:04:19.664Z,18.35
2019-03-24T23:06:51.263Z,25.12
2019-03-24T23:09:22.069Z,23.50
2019-03-24T23:11:52.828Z,23.70
2019-03-24T23:14:23.668Z,22.48
2019-03-24T23:16:54.551Z,22.82
2019-03-24T23:19:25.319Z,23.02
2019-03-24T23:21:56.059Z,21.05
2019-03-24T23:24:26.879Z,22.48
2019-03-24T23:26:57.741Z,24.18
2019-03-24T23:29:28.510Z,24.05
2019-03-24T23:31:59.901Z,22.98
2019-03-24T23:34:30.619Z,21.20
2019-03-24T23:37:01.319Z,23.10
2019-03-24T23:39:31.992Z,23.60
2019-03-24T23:42:02.970Z,22.25
2019-03-24T23:44:35.755Z,23.60
2019-03-24T23:47:06.481Z,22.42
2019-03-24T23:49:37.145Z,22.70
2019-03-24T23:52:07.908Z,22.00
2019-03-24T23:54:38.535Z,22.50
2019-03-24T23:57:09.220Z,24.40
2019-03-24T23:59:39.847Z,22.30
